Time;durP1;ratioP1;P1;durP2;ratioP2;P2;SDS_P1;SDS_P2;PMS_P1;PMS_P2;Temp;Humidity;BMP_temperature;BMP_pressure;BME280_temperature;BME280_humidity;BME280_pressure;Samples;Min_cycle;Max_cycle;Signal;HPM_P1;HPM_P2
2023/01/22 00:01:11;;;;;;;16.47;11.47;;;0.90;1.00;;;;;;5023981;28;20211;-66
2023/01/22 00:03:39;;;;;;;16.47;12.00;;;1.00;1.00;;;;;;5040859;28;20215;-65
2023/01/22 00:06:07;;;;;;;14.93;11.27;;;1.00;1.00;;;;;;5024039;28;20202;-65
2023/01/22 00:08:34;;;;;;;15.83;11.27;;;0.90;1.00;;;;;;5038554;28;20253;-65
2023/01/22 00:11:10;;;;;;;16.77;11.73;;;0.90;1.00;;;;;;5056938;28;20651;-67
2023/01/22 00:13:38;;;;;;;15.27;10.53;;;1.00;1.00;;;;;;5021973;28;20199;-67
2023/01/22 00:16:05;;;;;;;14.73;10.40;;;1.00;1.00;;;;;;5017986;28;20207;-67
2023/01/22 00:18:33;;;;;;;30.27;18.07;;;1.00;1.00;;;;;;5015963;28;20603;-64
2023/01/22 00:21:01;;;;;;;20.67;13.33;;;1.00;1.00;;;;;;5054874;28;20674;-66
2023/01/22 00:23:28;;;;;;;20.23;13.27;;;1.00;1.00;;;;;;5056381;28;20234;-65
2023/01/22 00:26:11;;;;;;;15.30;11.50;;;1.00;1.00;;;;;;5039342;28;20199;-65
2023/01/22 00:28:41;;;;;;;16.83;12.53;;;1.00;1.00;;;;;;5054487;28;20226;-64
2023/01/22 00:31:09;;;;;;;18.03;12.13;;;1.00;1.00;;;;;;5039689;28;20257;-64
2023/01/22 00:33:38;;;;;;;17.10;12.33;;;1.00;1.00;;;;;;5023085;28;20199;-70
2023/01/22 00:36:07;;;;;;;16.30;11.57;;;1.00;1.00;;;;;;5039559;28;20608;-66
2023/01/22 00:38:34;;;;;;;17.50;11.97;;;0.90;1.00;;;;;;5040568;28;20224;-66
2023/01/22 00:41:03;;;;;;;16.97;11.00;;;0.90;1.00;;;;;;5058363;28;20662;-66
2023/01/22 00:43:32;;;;;;;16.57;12.10;;;0.90;1.00;;;;;;5054011;28;20191;-66
2023/01/22 00:45:59;;;;;;;15.17;10.40;;;0.90;1.00;;;;;;5037087;28;20207;-66
2023/01/22 00:48:27;;;;;;;15.40;11.73;;;0.80;1.00;;;;;;5022433;28;20200;-66
2023/01/22 00:50:54;;;;;;;19.17;12.73;;;0.80;1.00;;;;;;5034912;28;20202;-66
2023/01/22 00:53:21;;;;;;;17.30;12.37;;;0.80;1.00;;;;;;5055942;28;20677;-66
2023/01/22 00:55:51;;;;;;;18.63;12.73;;;0.80;1.00;;;;;;5050283;28;20729;-66
2023/01/22 00:58:18;;;;;;;17.33;12.23;;;0.70;1.00;;;;;;5034576;28;20203;-65
2023/01/22 01:00:46;;;;;;;17.97;12.93;;;0.70;1.00;;;;;;5039987;28;20225;-66
2023/01/22 01:03:31;;;;;;;17.03;12.83;;;0.70;8.20;;;;;;5037792;28;20274;-66
2023/01/22 01:06:01;;;;;;;18.33;12.63;;;0.70;25.90;;;;;;5038035;28;20294;-68
2023/01/22 01:08:30;;;;;;;18.33;12.20;;;0.60;42.20;;;;;;5024091;28;20901;-65
2023/01/22 01:11:05;;;;;;;20.03;13.00;;;0.60;52.10;;;;;;5041166;28;20242;-65
2023/01/22 01:13:37;;;;;;;22.63;13.73;;;0.60;64.10;;;;;;5038950;28;20244;-67
2023/01/22 01:16:07;;;;;;;21.10;12.90;;;0.60;66.60;;;;;;5057692;28;20179;-65
2023/01/22 01:18:34;;;;;;;17.17;12.90;;;0.60;66.50;;;;;;5041255;28;20796;-65
2023/01/22 01:21:03;;;;;;;18.83;12.93;;;0.60;66.60;;;;;;5016776;28;20213;-66
2023/01/22 01:23:30;;;;;;;18.40;12.53;;;0.60;62.80;;;;;;5041381;28;20203;-68
2023/01/22 01:25:58;;;;;;;19.53;13.03;;;0.60;54.90;;;;;;5049062;28;20219;-67
2023/01/22 01:28:27;;;;;;;18.73;12.93;;;0.60;35.80;;;;;;5041723;28;20246;-66
2023/01/22 01:30:54;;;;;;;18.67;12.90;;;0.60;31.80;;;;;;5054541;28;20319;-68
2023/01/22 01:33:21;;;;;;;18.47;13.53;;;0.70;15.80;;;;;;5056144;28;20678;-65
2023/01/22 01:35:48;;;;;;;18.10;13.03;;;0.70;13.20;;;;;;5058691;28;20246;-66
2023/01/22 01:38:15;;;;;;;17.33;12.30;;;0.70;3.10;;;;;;5041167;28;20210;-66
2023/01/22 01:40:43;;;;;;;20.73;12.57;;;0.70;1.00;;;;;;5050021;28;20914;-67
2023/01/22 01:43:14;;;;;;;17.23;12.43;;;0.70;1.00;;;;;;5041062;28;20260;-67
2023/01/22 01:45:42;;;;;;;18.57;11.53;;;0.70;1.00;;;;;;5037304;28;20207;-67
2023/01/22 01:48:31;;;;;;;19.07;12.73;;;0.70;1.00;;;;;;5055996;28;20211;-69
2023/01/22 01:51:13;;;;;;;18.30;12.67;;;0.70;1.00;;;;;;5039505;28;20548;-65
2023/01/22 01:53:43;;;;;;;17.40;13.00;;;0.70;1.00;;;;;;5023656;28;20229;-65
2023/01/22 01:56:16;;;;;;;20.37;13.27;;;0.80;1.00;;;;;;5058905;28;20833;-67
2023/01/22 01:58:44;;;;;;;19.77;12.90;;;0.80;5.60;;;;;;5036989;28;20709;-67
2023/01/22 02:01:15;;;;;;;19.13;13.17;;;0.80;4.30;;;;;;5052297;28;21154;-68
2023/01/22 02:03:44;;;;;;;20.60;12.80;;;0.80;2.40;;;;;;5037154;28;20220;-67
2023/01/22 02:06:13;;;;;;;17.70;11.97;;;0.80;1.00;;;;;;5055732;28;20222;-66
2023/01/22 02:08:43;;;;;;;20.13;13.43;;;0.80;1.00;;;;;;5055689;28;20211;-67
2023/01/22 02:11:10;;;;;;;22.23;13.33;;;0.80;1.00;;;;;;5053740;28;20219;-67
2023/01/22 02:13:42;;;;;;;18.90;13.27;;;0.80;1.00;;;;;;5038546;28;20278;-67
2023/01/22 02:16:12;;;;;;;18.93;13.17;;;0.80;1.00;;;;;;5038808;28;20698;-67
2023/01/22 02:18:39;;;;;;;18.97;13.00;;;0.80;1.00;;;;;;5042688;28;20536;-68
2023/01/22 02:21:42;;;;;;;21.83;13.83;;;0.80;3.20;;;;;;5036534;28;20211;-68
2023/01/22 02:24:15;;;;;;;17.87;13.30;;;0.80;1.00;;;;;;5055443;28;20591;-68
2023/01/22 02:26:44;;;;;;;20.53;13.03;;;0.80;7.60;;;;;;5052982;28;20256;-67
2023/01/22 02:29:16;;;;;;;17.33;13.27;;;0.70;5.10;;;;;;5037567;28;20210;-69
2023/01/22 02:31:43;;;;;;;17.73;12.10;;;0.70;9.00;;;;;;5025450;28;20691;-69
2023/01/22 02:34:10;;;;;;;18.93;12.70;;;0.80;6.60;;;;;;5058529;28;20278;-67
2023/01/22 02:36:38;;;;;;;20.97;13.27;;;0.80;6.40;;;;;;5060019;28;20585;-67
2023/01/22 02:39:06;;;;;;;19.17;13.33;;;0.80;7.80;;;;;;5039708;28;20226;-67
2023/01/22 02:41:33;;;;;;;18.20;12.97;;;0.80;15.30;;;;;;5039343;28;20198;-67
2023/01/22 02:44:00;;;;;;;19.73;13.67;;;0.80;24.90;;;;;;5040374;28;20210;-68
2023/01/22 02:46:29;;;;;;;18.03;12.53;;;0.80;28.50;;;;;;5039757;28;20485;-68
2023/01/22 02:48:56;;;;;;;16.70;12.30;;;0.80;28.80;;;;;;5056143;28;20192;-68
2023/01/22 02:51:23;;;;;;;20.90;13.77;;;0.80;34.60;;;;;;5055160;28;20261;-68
2023/01/22 02:53:50;;;;;;;18.67;13.27;;;0.70;48.30;;;;;;5024059;28;20203;-68
2023/01/22 02:56:18;;;;;;;18.43;13.33;;;0.80;56.60;;;;;;5039532;28;20221;-69
2023/01/22 02:58:45;;;;;;;18.63;13.03;;;0.80;57.50;;;;;;5039088;28;20207;-70
2023/01/22 03:01:19;;;;;;;20.97;14.53;;;0.80;71.00;;;;;;5037683;28;20211;-70
2023/01/22 03:03:53;;;;;;;16.20;12.50;;;0.80;88.90;;;;;;5022579;28;20246;-70
2023/01/22 03:06:23;;;;;;;20.40;13.87;;;0.80;80.70;;;;;;5038260;28;20206;-70
2023/01/22 03:08:58;;;;;;;18.03;12.43;;;0.70;84.40;;;;;;5057592;28;20613;-70
2023/01/22 03:11:27;;;;;;;20.57;13.43;;;0.80;83.20;;;;;;5040156;28;20293;-71
2023/01/22 03:22:17;;;;;;;21.30;14.03;;;0.80;99.90;;;;;;5035244;28;20206;-69
2023/01/22 03:24:51;;;;;;;20.73;13.10;;;0.70;99.90;;;;;;5038591;28;20797;-68
2023/01/22 03:27:24;;;;;;;18.40;13.43;;;0.80;99.90;;;;;;5040148;28;20250;-67
2023/01/22 03:29:52;;;;;;;19.10;13.33;;;0.70;99.90;;;;;;5020874;28;20281;-68
2023/01/22 03:32:20;;;;;;;19.43;13.33;;;0.70;99.90;;;;;;5037652;28;20285;-67
2023/01/22 03:34:47;;;;;;;16.13;12.97;;;0.70;99.90;;;;;;5038755;28;20265;-67
2023/01/22 03:37:14;;;;;;;17.80;12.63;;;0.80;99.90;;;;;;5039356;28;20265;-67
2023/01/22 03:39:44;;;;;;;21.60;13.80;;;0.70;99.90;;;;;;5040119;28;20674;-67
2023/01/22 03:42:18;;;;;;;17.87;13.73;;;0.70;99.90;;;;;;5025174;28;20666;-68
2023/01/22 03:44:45;;;;;;;18.43;13.80;;;0.70;99.90;;;;;;5037111;28;20689;-73
2023/01/22 03:47:12;;;;;;;19.67;13.47;;;0.80;99.90;;;;;;5036700;28;20220;-67
2023/01/22 03:49:40;;;;;;;19.43;13.57;;;0.80;99.90;;;;;;5036311;28;20338;-68
2023/01/22 03:52:09;;;;;;;18.17;13.83;;;0.70;99.90;;;;;;5036695;28;20190;-67
2023/01/22 03:54:39;;;;;;;18.90;13.00;;;0.70;99.90;;;;;;5037491;28;20198;-68
2023/01/22 03:57:08;;;;;;;19.13;13.40;;;0.70;99.90;;;;;;5021785;28;20207;-69
2023/01/22 03:59:37;;;;;;;21.47;14.17;;;0.80;99.90;;;;;;5040179;28;20195;-68
2023/01/22 04:02:05;;;;;;;20.30;13.20;;;0.80;99.90;;;;;;5035753;28;20191;-69
2023/01/22 04:04:43;;;;;;;18.23;12.67;;;0.80;99.90;;;;;;5014145;28;20253;-69
2023/01/22 04:07:11;;;;;;;16.90;12.87;;;0.70;99.90;;;;;;5038251;28;20225;-69
2023/01/22 04:09:38;;;;;;;18.07;13.47;;;0.80;99.90;;;;;;5036943;28;20200;-68
2023/01/22 04:12:05;;;;;;;19.03;12.93;;;0.80;99.90;;;;;;5029302;28;20248;-68
2023/01/22 04:14:32;;;;;;;21.60;13.07;;;0.80;99.90;;;;;;5037466;28;20200;-68
2023/01/22 04:17:01;;;;;;;17.97;13.33;;;0.80;99.90;;;;;;5036478;28;20196;-68
2023/01/22 04:19:39;;;;;;;17.27;12.77;;;0.80;99.90;;;;;;5038551;28;20218;-67
2023/01/22 04:22:17;;;;;;;20.47;14.40;;;0.80;99.90;;;;;;5038413;28;20205;-68
2023/01/22 04:24:45;;;;;;;22.30;15.63;;;0.80;99.90;;;;;;5037215;28;20204;-68
2023/01/22 04:27:13;;;;;;;22.00;16.17;;;0.80;99.90;;;;;;5041062;28;20203;-67
2023/01/22 04:29:40;;;;;;;18.17;12.40;;;0.80;99.90;;;;;;5051843;28;20710;-67
2023/01/22 04:32:07;;;;;;;18.00;13.30;;;0.80;99.90;;;;;;5052882;28;20198;-67
2023/01/22 04:34:53;;;;;;;18.80;14.00;;;0.80;99.90;;;;;;5039292;28;20219;-66
2023/01/22 04:37:24;;;;;;;19.33;13.27;;;0.80;99.90;;;;;;5037738;28;20668;-67
2023/01/22 04:39:51;;;;;;;16.07;12.30;;;0.80;99.90;;;;;;5038884;28;20211;-66
2023/01/22 04:42:18;;;;;;;18.53;12.97;;;0.80;99.90;;;;;;5041632;28;20208;-66
2023/01/22 04:44:46;;;;;;;16.83;12.50;;;0.80;99.90;;;;;;5024678;28;20208;-67
2023/01/22 04:47:13;;;;;;;17.43;12.73;;;0.80;99.90;;;;;;5039320;28;20234;-67
2023/01/22 04:49:40;;;;;;;16.83;13.17;;;0.80;99.90;;;;;;5041127;28;20199;-67
2023/01/22 04:52:10;;;;;;;17.93;12.77;;;0.80;99.90;;;;;;5039691;28;20659;-66
2023/01/22 04:54:37;;;;;;;18.20;13.07;;;0.80;99.90;;;;;;5026905;28;20203;-68
2023/01/22 04:57:04;;;;;;;18.33;13.00;;;0.80;99.90;;;;;;5039776;28;20674;-67
2023/01/22 04:59:31;;;;;;;18.27;12.83;;;0.80;99.90;;;;;;5041748;28;20240;-67
2023/01/22 05:01:58;;;;;;;17.30;13.47;;;0.80;99.90;;;;;;5041365;28;20200;-67
2023/01/22 05:04:26;;;;;;;17.57;13.10;;;0.80;99.90;;;;;;5030038;28;20214;-66
2023/01/22 05:06:53;;;;;;;17.23;13.50;;;0.90;99.90;;;;;;5040619;28;20203;-66
2023/01/22 05:09:20;;;;;;;18.43;12.67;;;0.80;99.90;;;;;;5058758;28;20725;-66
2023/01/22 05:11:52;;;;;;;19.60;13.67;;;0.80;99.90;;;;;;5041839;28;20187;-66
2023/01/22 05:14:19;;;;;;;17.13;12.07;;;0.90;99.90;;;;;;5040247;28;20263;-68
2023/01/22 05:16:48;;;;;;;17.20;12.70;;;0.90;99.90;;;;;;5040842;28;20191;-67
2023/01/22 05:19:15;;;;;;;18.57;13.43;;;0.80;99.90;;;;;;5042454;28;20727;-67
2023/01/22 05:21:42;;;;;;;16.47;13.27;;;0.80;99.90;;;;;;5026316;28;20207;-67
2023/01/22 05:24:11;;;;;;;17.70;12.97;;;0.90;99.90;;;;;;5026516;28;20294;-67
2023/01/22 05:26:39;;;;;;;17.80;13.13;;;0.90;99.90;;;;;;5026532;28;20199;-68
2023/01/22 05:29:11;;;;;;;16.47;12.53;;;0.90;99.90;;;;;;5038614;28;20651;-69
2023/01/22 05:31:58;;;;;;;16.87;12.10;;;0.90;99.90;;;;;;5028340;28;20197;-68
2023/01/22 05:34:29;;;;;;;17.10;12.40;;;0.90;99.90;;;;;;5026353;28;20198;-67
2023/01/22 05:36:56;;;;;;;16.20;12.30;;;0.90;99.90;;;;;;5039012;28;20198;-67
2023/01/22 05:39:25;;;;;;;16.07;11.83;;;0.80;99.90;;;;;;5040340;28;20299;-67
2023/01/22 05:41:54;;;;;;;17.43;11.77;;;0.80;99.90;;;;;;5041989;28;20608;-66
2023/01/22 05:44:21;;;;;;;14.53;12.10;;;0.80;99.90;;;;;;5055568;28;20695;-66
2023/01/22 05:46:51;;;;;;;14.33;11.37;;;0.80;99.90;;;;;;5024049;28;20302;-66
2023/01/22 05:49:26;;;;;;;16.10;12.50;;;0.80;99.90;;;;;;5006579;28;20256;-67
2023/01/22 05:51:55;;;;;;;15.87;11.20;;;0.90;99.90;;;;;;5040162;28;20461;-66
2023/01/22 05:54:22;;;;;;;16.43;12.43;;;0.90;99.90;;;;;;5058918;28;20274;-66
2023/01/22 05:56:50;;;;;;;19.93;12.10;;;0.80;99.90;;;;;;5026786;28;20578;-66
2023/01/22 05:59:17;;;;;;;18.27;12.27;;;0.80;99.90;;;;;;5043186;28;20202;-66
2023/01/22 06:01:52;;;;;;;17.27;12.97;;;0.80;99.90;;;;;;5040321;28;20364;-66
2023/01/22 06:04:19;;;;;;;16.40;12.40;;;0.80;99.90;;;;;;5041338;28;20219;-67
2023/01/22 06:06:46;;;;;;;15.50;11.37;;;0.80;99.90;;;;;;5041630;28;20207;-66
2023/01/22 06:09:13;;;;;;;16.47;11.63;;;0.70;99.90;;;;;;5040681;28;20780;-67
2023/01/22 06:11:41;;;;;;;14.90;11.33;;;0.70;1.00;;;;;;5057697;28;20195;-67
2023/01/22 06:14:09;;;;;;;15.90;12.33;;;0.70;1.00;;;;;;5057703;28;20267;-68
2023/01/22 06:16:36;;;;;;;14.77;11.53;;;0.70;1.00;;;;;;5041335;28;20199;-67
2023/01/22 06:19:07;;;;;;;16.70;12.73;;;0.70;1.00;;;;;;5056518;28;20239;-67
2023/01/22 06:21:42;;;;;;;16.73;12.57;;;0.60;1.00;;;;;;5039559;28;20210;-67
2023/01/22 06:24:10;;;;;;;15.83;12.43;;;0.60;1.00;;;;;;5040320;28;20202;-68
2023/01/22 06:26:40;;;;;;;20.40;14.90;;;0.60;1.00;;;;;;5040590;28;20214;-68
2023/01/22 06:29:09;;;;;;;19.17;13.37;;;0.70;1.00;;;;;;5019262;28;20218;-70
2023/01/22 06:31:38;;;;;;;21.73;13.60;;;0.60;1.00;;;;;;5040427;28;20732;-67
2023/01/22 06:34:07;;;;;;;18.40;13.80;;;0.60;1.00;;;;;;5044001;28;20191;-67
2023/01/22 06:36:35;;;;;;;16.97;13.30;;;0.60;15.60;;;;;;5038555;28;20365;-68
2023/01/22 06:39:02;;;;;;;18.93;14.20;;;0.70;74.50;;;;;;5040583;28;20765;-67
2023/01/22 06:41:42;;;;;;;17.80;13.27;;;0.60;99.90;;;;;;5016498;28;20623;-67
2023/01/22 06:44:15;;;;;;;17.13;13.03;;;0.60;99.90;;;;;;5038896;28;20687;-67
2023/01/22 06:46:42;;;;;;;18.27;12.90;;;0.60;99.90;;;;;;5057801;28;20292;-70
2023/01/22 06:49:17;;;;;;;19.33;13.40;;;0.60;99.90;;;;;;5039234;28;20312;-68
2023/01/22 06:51:44;;;;;;;18.77;13.63;;;0.60;99.90;;;;;;5052937;28;20188;-68
2023/01/22 06:54:12;;;;;;;16.13;12.30;;;0.60;99.90;;;;;;5031226;28;20203;-67
2023/01/22 06:56:39;;;;;;;17.87;13.97;;;0.50;99.90;;;;;;5039188;28;20211;-67
2023/01/22 06:59:06;;;;;;;18.40;12.97;;;0.60;1.00;;;;;;5036728;28;20217;-67
2023/01/22 07:01:33;;;;;;;16.17;12.63;;;0.60;1.00;;;;;;5054071;28;20198;-67
2023/01/22 07:04:00;;;;;;;16.60;12.53;;;0.60;1.00;;;;;;5021096;28;20223;-67
2023/01/22 07:06:27;;;;;;;17.20;12.37;;;0.60;1.00;;;;;;5056110;28;20261;-66
2023/01/22 07:08:55;;;;;;;17.27;12.80;;;0.50;1.00;;;;;;5054719;28;20266;-67
2023/01/22 07:11:22;;;;;;;16.43;12.57;;;0.50;1.00;;;;;;5039612;28;20206;-66
2023/01/22 07:13:49;;;;;;;17.80;12.80;;;0.60;1.00;;;;;;5043791;28;20654;-65
2023/01/22 07:16:16;;;;;;;16.97;12.03;;;0.60;1.00;;;;;;5039845;28;20195;-67
2023/01/22 07:18:43;;;;;;;14.53;11.53;;;0.60;1.00;;;;;;5021614;28;20199;-66
2023/01/22 07:21:11;;;;;;;19.57;13.17;;;0.60;1.00;;;;;;5054595;28;20242;-67
2023/01/22 07:23:38;;;;;;;16.33;12.10;;;0.60;1.00;;;;;;5056788;28;20253;-67
2023/01/22 07:26:05;;;;;;;17.63;12.60;;;0.60;1.00;;;;;;5057644;28;20229;-67
2023/01/22 07:28:32;;;;;;;15.13;12.00;;;0.60;1.00;;;;;;5037999;28;20589;-67
2023/01/22 07:31:02;;;;;;;19.07;13.50;;;0.60;1.00;;;;;;5052849;28;20281;-71
2023/01/22 07:33:29;;;;;;;17.63;12.67;;;0.60;37.10;;;;;;5035852;28;20197;-68
2023/01/22 07:35:57;;;;;;;16.87;13.20;;;0.60;62.80;;;;;;5056639;28;20701;-68
2023/01/22 07:38:26;;;;;;;18.03;13.07;;;0.60;40.40;;;;;;5038770;28;20287;-68
2023/01/22 07:40:59;;;;;;;20.40;14.00;;;0.60;93.60;;;;;;5055507;28;20207;-68
2023/01/22 07:43:27;;;;;;;18.70;13.60;;;0.70;99.90;;;;;;5053767;28;20198;-67
2023/01/22 07:45:54;;;;;;;17.03;12.70;;;0.60;99.90;;;;;;5038825;28;20629;-67
2023/01/22 07:48:21;;;;;;;19.23;14.17;;;0.60;99.90;;;;;;5058900;28;20763;-66
2023/01/22 07:50:47;;;;;;;20.03;13.60;;;0.60;99.90;;;;;;5056059;28;20686;-66
2023/01/22 07:53:14;;;;;;;17.80;13.00;;;0.60;99.90;;;;;;5037768;28;20210;-68
2023/01/22 07:55:41;;;;;;;19.80;15.10;;;0.60;99.90;;;;;;5059023;28;20773;-67
2023/01/22 07:58:10;;;;;;;18.23;13.43;;;0.60;99.90;;;;;;5040090;28;20468;-67
2023/01/22 08:00:37;;;;;;;19.23;13.73;;;0.60;99.90;;;;;;5052464;28;20278;-67
2023/01/22 08:03:06;;;;;;;19.30;13.90;;;0.60;99.90;;;;;;5055022;28;20187;-68
2023/01/22 08:05:33;;;;;;;21.13;15.23;;;0.70;99.90;;;;;;5054741;28;20201;-66
2023/01/22 08:08:00;;;;;;;18.80;14.07;;;0.70;99.90;;;;;;5054475;28;20205;-67
2023/01/22 08:10:27;;;;;;;17.70;13.57;;;0.70;99.90;;;;;;5052753;28;20656;-68
2023/01/22 08:12:54;;;;;;;24.33;16.30;;;0.70;99.90;;;;;;5058018;28;20275;-67
2023/01/22 08:15:21;;;;;;;22.33;14.80;;;0.70;99.90;;;;;;5055670;28;20192;-66
2023/01/22 08:17:49;;;;;;;24.47;17.47;;;0.80;99.90;;;;;;5061404;28;20278;-66
2023/01/22 08:20:17;;;;;;;19.73;15.37;;;0.80;99.90;;;;;;5046120;28;20249;-67
2023/01/22 08:22:44;;;;;;;22.17;15.23;;;0.90;99.90;;;;;;5061884;28;20229;-67
2023/01/22 08:25:12;;;;;;;20.70;15.73;;;0.90;99.90;;;;;;5062520;28;20211;-67
2023/01/22 08:27:39;;;;;;;25.07;15.93;;;0.80;99.90;;;;;;5061417;28;20204;-67
2023/01/22 08:30:07;;;;;;;24.87;17.53;;;0.80;99.90;;;;;;5058462;28;20223;-66
2023/01/22 08:32:34;;;;;;;23.00;15.67;;;0.90;99.90;;;;;;5060661;28;20197;-68
2023/01/22 08:35:02;;;;;;;22.93;15.93;;;0.90;99.90;;;;;;5060989;28;20253;-66
2023/01/22 08:37:29;;;;;;;23.10;15.93;;;1.00;99.90;;;;;;5053371;28;20590;-67
2023/01/22 08:39:56;;;;;;;22.07;16.10;;;1.10;99.90;;;;;;5043024;28;20196;-68
2023/01/22 08:42:23;;;;;;;21.20;16.47;;;1.20;99.90;;;;;;5045273;28;20203;-67
2023/01/22 08:44:49;;;;;;;21.60;16.33;;;1.30;7.90;;;;;;5044889;28;20195;-67
2023/01/22 08:47:16;;;;;;;23.13;16.33;;;1.20;1.00;;;;;;5058114;28;20223;-70
2023/01/22 08:49:43;;;;;;;23.50;17.00;;;1.20;1.00;;;;;;5061611;28;20593;-66
2023/01/22 08:52:10;;;;;;;22.83;16.27;;;1.30;1.00;;;;;;5026223;28;20229;-67
2023/01/22 08:54:37;;;;;;;22.50;17.00;;;1.30;1.00;;;;;;5043287;28;20230;-67
2023/01/22 08:57:04;;;;;;;21.47;16.07;;;1.40;1.00;;;;;;5062566;28;20195;-70
2023/01/22 08:59:31;;;;;;;20.40;15.77;;;1.40;1.00;;;;;;5061628;28;20276;-67
2023/01/22 09:01:59;;;;;;;23.10;17.03;;;1.40;1.00;;;;;;5062253;28;20249;-67
2023/01/22 09:04:27;;;;;;;23.43;17.33;;;1.40;1.00;;;;;;5063825;28;20251;-67
2023/01/22 09:06:54;;;;;;;21.33;17.63;;;1.40;1.00;;;;;;5044595;28;20303;-69
2023/01/22 09:09:21;;;;;;;30.27;23.43;;;1.40;99.90;;;;;;5043879;28;20231;-68
2023/01/22 09:11:48;;;;;;;28.87;18.97;;;1.40;99.90;;;;;;5044376;28;20206;-66
2023/01/22 09:14:15;;;;;;;22.97;17.57;;;1.40;99.90;;;;;;5060994;28;20198;-67
2023/01/22 09:16:42;;;;;;;26.00;18.60;;;1.40;99.90;;;;;;5044590;28;20230;-67
2023/01/22 09:19:10;;;;;;;28.27;18.80;;;1.30;99.90;;;;;;5041989;28;20208;-68
2023/01/22 09:21:37;;;;;;;27.33;20.40;;;1.40;99.90;;;;;;5027602;28;20313;-66
2023/01/22 09:24:05;;;;;;;27.30;20.87;;;1.40;99.90;;;;;;5042929;28;20223;-66
2023/01/22 09:26:33;;;;;;;27.67;21.40;;;1.50;99.90;;;;;;5059879;28;20524;-65
2023/01/22 09:29:03;;;;;;;25.37;19.53;;;1.50;99.90;;;;;;5025412;28;20220;-65
2023/01/22 09:31:32;;;;;;;26.03;19.07;;;1.50;99.90;;;;;;5022527;28;20197;-66
2023/01/22 09:33:59;;;;;;;24.10;18.13;;;1.60;99.90;;;;;;5016322;28;20189;-67
2023/01/22 09:36:27;;;;;;;23.63;18.10;;;1.60;97.10;;;;;;5018095;28;20633;-66
2023/01/22 09:38:54;;;;;;;21.63;16.87;;;1.70;83.80;;;;;;5003934;28;20232;-67
2023/01/22 09:41:34;;;;;;;23.57;17.47;;;1.50;1.00;;;;;;5019035;28;20235;-66
2023/01/22 09:44:13;;;;;;;24.03;18.10;;;1.60;40.60;;;;;;5019850;28;20247;-66
2023/01/22 09:47:02;;;;;;;26.47;17.93;;;1.50;1.00;;;;;;5019990;28;20204;-66
2023/01/22 09:49:35;;;;;;;22.27;16.50;;;1.60;84.10;;;;;;5014165;28;20212;-66
2023/01/22 09:52:05;;;;;;;24.60;17.57;;;1.60;36.90;;;;;;5015982;28;20589;-69
2023/01/22 09:54:32;;;;;;;23.40;18.27;;;1.70;1.00;;;;;;5017467;28;20192;-67
2023/01/22 09:57:04;;;;;;;22.97;17.77;;;1.60;13.40;;;;;;5019061;28;20185;-66
2023/01/22 09:59:42;;;;;;;23.53;18.03;;;1.70;59.00;;;;;;5015268;28;20197;-68
2023/01/22 10:02:25;;;;;;;26.03;18.67;;;1.70;1.00;;;;;;4986738;28;20669;-67
2023/01/22 10:04:57;;;;;;;21.77;17.60;;;1.70;1.00;;;;;;5002161;28;20232;-67
2023/01/22 10:07:32;;;;;;;22.23;16.63;;;1.70;1.00;;;;;;5018647;28;20237;-68
2023/01/22 10:10:14;;;;;;;28.40;17.47;;;1.80;1.00;;;;;;5017753;28;20211;-66
2023/01/22 10:12:41;;;;;;;21.70;16.70;;;1.80;1.00;;;;;;5000774;28;20201;-66
2023/01/22 10:15:14;;;;;;;23.00;16.07;;;1.90;1.00;;;;;;5021778;28;20246;-66
2023/01/22 10:17:42;;;;;;;22.83;17.23;;;2.00;1.00;;;;;;5013671;28;20197;-66
2023/01/22 10:20:12;;;;;;;22.13;16.70;;;1.80;1.00;;;;;;5020316;28;20222;-67
2023/01/22 10:22:39;;;;;;;24.13;16.90;;;1.80;1.00;;;;;;5019431;28;20213;-66
2023/01/22 10:25:15;;;;;;;24.73;16.80;;;1.80;1.00;;;;;;5021161;28;20323;-66
2023/01/22 10:27:44;;;;;;;20.63;16.80;;;1.80;1.00;;;;;;5017031;28;20921;-67
2023/01/22 10:30:20;;;;;;;25.73;16.87;;;1.90;1.00;;;;;;5038078;28;20584;-68
2023/01/22 10:33:21;;;;;;;21.80;16.10;;;2.10;1.00;;;;;;5056959;28;20198;-67
2023/01/22 10:35:51;;;;;;;23.73;16.00;;;2.20;1.00;;;;;;5000751;28;20207;-68
2023/01/22 10:38:26;;;;;;;21.83;16.43;;;2.20;1.00;;;;;;5040824;28;20243;-67
2023/01/22 10:40:58;;;;;;;23.97;16.50;;;2.40;1.00;;;;;;5026204;28;20608;-68
2023/01/22 10:43:31;;;;;;;19.70;15.60;;;2.40;1.00;;;;;;5025082;28;20207;-68
2023/01/22 10:46:12;;;;;;;19.13;15.63;;;2.30;1.00;;;;;;5020061;28;20253;-69
2023/01/22 10:48:39;;;;;;;20.07;14.60;;;2.30;1.00;;;;;;5041049;28;20234;-69
2023/01/22 10:51:18;;;;;;;18.50;14.60;;;2.10;1.00;;;;;;5058005;28;20226;-68
2023/01/22 10:53:51;;;;;;;20.30;15.93;;;2.00;1.00;;;;;;5025997;28;20244;-68
2023/01/22 10:56:31;;;;;;;20.20;16.00;;;2.10;1.00;;;;;;5057485;28;20228;-69
2023/01/22 10:59:14;;;;;;;20.13;15.87;;;2.20;1.00;;;;;;5026281;28;20321;-69
2023/01/22 11:01:41;;;;;;;19.73;15.27;;;2.50;1.00;;;;;;5023443;28;20244;-69
2023/01/22 11:04:24;;;;;;;19.63;15.60;;;2.60;1.00;;;;;;5054701;28;20247;-67
2023/01/22 11:07:17;;;;;;;21.63;15.27;;;2.70;1.00;;;;;;5036089;28;20187;-66
2023/01/22 11:10:07;;;;;;;19.57;14.77;;;2.70;99.90;;;;;;5058210;28;20638;-66
2023/01/22 11:12:44;;;;;;;17.40;14.87;;;2.60;1.00;;;;;;4980695;28;20221;-67
2023/01/22 11:15:20;;;;;;;19.57;14.30;;;2.60;1.00;;;;;;5023608;28;20700;-67
2023/01/22 11:17:55;;;;;;;22.37;15.60;;;2.50;99.90;;;;;;5060967;28;20193;-69
2023/01/22 11:20:24;;;;;;;20.23;14.67;;;2.50;1.00;;;;;;5022342;28;20298;-69
2023/01/22 11:23:11;;;;;;;16.53;13.17;;;2.50;99.90;;;;;;5038140;28;20666;-69
2023/01/22 11:25:50;;;;;;;18.93;15.20;;;2.40;99.90;;;;;;5026872;28;20218;-69
2023/01/22 11:28:43;;;;;;;19.50;14.63;;;2.40;99.90;;;;;;5030922;28;20633;-69
2023/01/22 11:31:39;;;;;;;18.80;15.53;;;2.30;1.00;;;;;;5026427;28;20318;-70
2023/01/22 11:34:28;;;;;;;20.23;15.30;;;2.30;1.00;;;;;;4990452;28;20254;-69
2023/01/22 11:37:06;;;;;;;21.63;16.43;;;2.40;1.00;;;;;;5040202;28;20247;-69
2023/01/22 11:39:42;;;;;;;23.70;16.13;;;2.40;99.90;;;;;;5058937;28;20203;-70
2023/01/22 11:42:43;;;;;;;19.13;15.13;;;2.40;1.00;;;;;;5054272;28;20748;-70
2023/01/22 11:45:49;;;;;;;19.83;15.57;;;2.40;1.00;;;;;;5033928;28;20194;-69
2023/01/22 11:48:40;;;;;;;22.77;17.27;;;2.50;1.00;;;;;;5043075;28;20206;-70
2023/01/22 11:51:16;;;;;;;24.37;16.27;;;2.50;1.00;;;;;;5037142;28;20238;-69
2023/01/22 11:54:27;;;;;;;19.60;15.23;;;2.50;1.00;;;;;;5030119;28;20295;-70
2023/01/22 11:57:09;;;;;;;23.43;16.57;;;2.50;1.00;;;;;;5054171;28;20733;-70
2023/01/22 12:00:02;;;;;;;21.93;15.43;;;2.40;1.00;;;;;;5056512;28;20195;-69
2023/01/22 12:02:59;;;;;;;28.60;17.40;;;2.30;99.90;;;;;;5031625;28;20198;-69
2023/01/22 12:05:47;;;;;;;24.83;16.47;;;2.30;1.00;;;;;;5049043;28;20691;-66
2023/01/22 12:08:48;;;;;;;24.07;15.53;;;2.30;1.00;;;;;;5049127;28;20272;-68
2023/01/22 12:11:37;;;;;;;23.00;16.70;;;2.20;1.00;;;;;;5036024;28;20275;-66
2023/01/22 12:14:15;;;;;;;23.07;16.77;;;2.10;1.00;;;;;;5046045;28;20223;-67
2023/01/22 12:17:10;;;;;;;23.83;17.13;;;2.20;1.00;;;;;;5010980;28;20671;-66
2023/01/22 12:20:00;;;;;;;24.90;16.23;;;2.30;1.00;;;;;;5026712;28;20207;-67
2023/01/22 12:22:44;;;;;;;21.33;15.50;;;2.40;1.00;;;;;;5017376;28;20218;-67
2023/01/22 12:25:32;;;;;;;23.93;16.33;;;2.40;1.00;;;;;;5044861;28;20196;-65
2023/01/22 12:28:30;;;;;;;20.03;15.63;;;2.30;1.00;;;;;;5017662;28;20200;-67
2023/01/22 12:30:58;;;;;;;19.60;14.50;;;2.40;1.00;;;;;;5017372;28;20574;-67
2023/01/22 12:33:35;;;;;;;23.37;15.60;;;2.40;1.00;;;;;;5028120;28;20176;-67
2023/01/22 12:36:08;;;;;;;20.90;15.40;;;2.50;1.00;;;;;;4999248;28;20223;-68
2023/01/22 12:38:39;;;;;;;18.93;15.43;;;2.50;1.00;;;;;;5025075;28;20208;-66
2023/01/22 12:41:32;;;;;;;23.70;16.70;;;2.40;99.90;;;;;;5018365;28;20192;-67
2023/01/22 12:44:25;;;;;;;21.77;15.20;;;2.50;1.00;;;;;;5038180;28;20203;-67
2023/01/22 12:46:52;;;;;;;18.17;13.90;;;2.50;99.90;;;;;;5015771;28;20296;-67
2023/01/22 12:49:20;;;;;;;19.13;15.17;;;2.50;1.00;;;;;;5056552;28;20315;-67
2023/01/22 12:51:50;;;;;;;18.33;14.23;;;2.50;1.00;;;;;;5033124;28;20227;-66
2023/01/22 12:54:26;;;;;;;22.93;15.50;;;2.50;99.90;;;;;;5057878;28;20192;-66
2023/01/22 12:57:08;;;;;;;24.07;14.93;;;2.60;1.00;;;;;;5038308;28;20222;-67
2023/01/22 12:59:36;;;;;;;21.10;14.87;;;2.50;99.90;;;;;;5037035;28;20639;-67
2023/01/22 13:02:21;;;;;;;20.77;15.37;;;2.60;1.00;;;;;;5036497;28;20241;-69
2023/01/22 13:04:49;;;;;;;18.87;14.53;;;2.60;99.90;;;;;;5040838;28;20257;-66
2023/01/22 13:07:28;;;;;;;19.67;15.53;;;2.50;99.90;;;;;;5026613;28;20544;-67
2023/01/22 13:10:20;;;;;;;18.93;14.43;;;2.60;99.90;;;;;;5045798;28;20667;-67
2023/01/22 13:13:13;;;;;;;22.90;14.80;;;2.60;99.90;;;;;;5055761;28;20196;-66